sensor_id;sensor_type;location;lat;lon;timestamp;P1;durP1;ratioP1;P2;durP2;ratioP2
579;SDS011;276;48.392;9.950;2023-05-07T00:00:10;3.00;;;2.70;;
579;SDS011;276;48.392;9.950;2023-05-07T00:02:36;3.53;;;3.23;;
579;SDS011;276;48.392;9.950;2023-05-07T00:05:02;4.43;;;2.70;;
579;SDS011;276;48.392;9.950;2023-05-07T00:07:28;3.20;;;2.77;;
579;SDS011;276;48.392;9.950;2023-05-07T00:09:54;3.30;;;3.00;;
579;SDS011;276;48.392;9.950;2023-05-07T00:12:22;3.50;;;3.30;;
579;SDS011;276;48.392;9.950;2023-05-07T00:14:50;4.80;;;3.00;;
579;SDS011;276;48.392;9.950;2023-05-07T00:17:16;5.40;;;2.97;;
579;SDS011;276;48.392;9.950;2023-05-07T00:19:41;4.40;;;3.10;;
579;SDS011;276;48.392;9.950;2023-05-07T00:22:09;3.00;;;2.80;;
579;SDS011;276;48.392;9.950;2023-05-07T00:24:35;3.50;;;3.20;;
579;SDS011;276;48.392;9.950;2023-05-07T00:27:03;3.57;;;3.27;;
579;SDS011;276;48.392;9.950;2023-05-07T00:29:28;3.00;;;2.70;;
579;SDS011;276;48.392;9.950;2023-05-07T00:31:54;3.23;;;2.37;;
579;SDS011;276;48.392;9.950;2023-05-07T00:34:19;4.83;;;2.53;;
579;SDS011;276;48.392;9.950;2023-05-07T00:36:45;3.20;;;2.90;;
579;SDS011;276;48.392;9.950;2023-05-07T00:39:10;6.57;;;3.77;;
579;SDS011;276;48.392;9.950;2023-05-07T00:41:36;3.83;;;3.07;;
579;SDS011;276;48.392;9.950;2023-05-07T00:44:02;3.50;;;3.20;;
579;SDS011;276;48.392;9.950;2023-05-07T00:46:28;8.37;;;3.20;;
579;SDS011;276;48.392;9.950;2023-05-07T00:48:55;2.70;;;2.50;;
579;SDS011;276;48.392;9.950;2023-05-07T00:51:23;4.00;;;2.97;;
579;SDS011;276;48.392;9.950;2023-05-07T00:53:52;2.80;;;2.60;;
579;SDS011;276;48.392;9.950;2023-05-07T00:56:20;7.30;;;3.83;;
579;SDS011;276;48.392;9.950;2023-05-07T00:58:50;4.60;;;2.83;;
579;SDS011;276;48.392;9.950;2023-05-07T01:01:16;3.30;;;3.00;;
579;SDS011;276;48.392;9.950;2023-05-07T01:03:42;4.50;;;3.60;;
579;SDS011;276;48.392;9.950;2023-05-07T01:06:08;2.97;;;2.60;;
579;SDS011;276;48.392;9.950;2023-05-07T01:08:35;3.27;;;2.97;;
579;SDS011;276;48.392;9.950;2023-05-07T01:11:04;3.03;;;2.47;;
579;SDS011;276;48.392;9.950;2023-05-07T01:13:31;7.40;;;4.90;;
579;SDS011;276;48.392;9.950;2023-05-07T01:16:00;8.20;;;7.50;;
579;SDS011;276;48.392;9.950;2023-05-07T01:18:26;5.13;;;4.73;;
579;SDS011;276;48.392;9.950;2023-05-07T01:20:52;4.53;;;4.13;;
579;SDS011;276;48.392;9.950;2023-05-07T01:23:20;4.13;;;3.83;;
579;SDS011;276;48.392;9.950;2023-05-07T01:25:52;6.73;;;3.80;;
579;SDS011;276;48.392;9.950;2023-05-07T01:28:20;3.10;;;2.90;;
579;SDS011;276;48.392;9.950;2023-05-07T01:30:50;5.03;;;3.20;;
579;SDS011;276;48.392;9.950;2023-05-07T01:33:22;3.10;;;2.80;;
579;SDS011;276;48.392;9.950;2023-05-07T01:35:51;2.93;;;2.70;;
579;SDS011;276;48.392;9.950;2023-05-07T01:38:18;4.73;;;2.83;;
579;SDS011;276;48.392;9.950;2023-05-07T01:40:46;3.37;;;2.83;;
579;SDS011;276;48.392;9.950;2023-05-07T01:43:12;3.67;;;2.90;;
579;SDS011;276;48.392;9.950;2023-05-07T01:45:38;3.50;;;2.80;;
579;SDS011;276;48.392;9.950;2023-05-07T01:48:05;4.47;;;2.63;;
579;SDS011;276;48.392;9.950;2023-05-07T01:50:34;3.73;;;3.43;;
579;SDS011;276;48.392;9.950;2023-05-07T01:53:05;5.00;;;3.27;;
579;SDS011;276;48.392;9.950;2023-05-07T01:55:31;3.17;;;2.97;;
579;SDS011;276;48.392;9.950;2023-05-07T01:57:57;3.03;;;2.83;;
579;SDS011;276;48.392;9.950;2023-05-07T02:00:24;3.40;;;2.40;;
579;SDS011;276;48.392;9.950;2023-05-07T02:02:52;3.73;;;2.83;;
579;SDS011;276;48.392;9.950;2023-05-07T02:05:21;3.47;;;3.10;;
579;SDS011;276;48.392;9.950;2023-05-07T02:07:47;3.67;;;3.37;;
579;SDS011;276;48.392;9.950;2023-05-07T02:10:12;3.73;;;2.63;;
579;SDS011;276;48.392;9.950;2023-05-07T02:12:40;4.77;;;3.17;;
579;SDS011;276;48.392;9.950;2023-05-07T02:15:07;3.23;;;2.93;;
579;SDS011;276;48.392;9.950;2023-05-07T02:17:33;5.23;;;3.10;;
579;SDS011;276;48.392;9.950;2023-05-07T02:20:05;2.97;;;2.77;;
579;SDS011;276;48.392;9.950;2023-05-07T02:22:32;3.40;;;3.20;;
579;SDS011;276;48.392;9.950;2023-05-07T02:24:57;3.97;;;3.67;;
579;SDS011;276;48.392;9.950;2023-05-07T02:27:23;3.80;;;3.50;;
579;SDS011;276;48.392;9.950;2023-05-07T02:29:48;3.37;;;3.07;;
579;SDS011;276;48.392;9.950;2023-05-07T02:32:14;3.27;;;3.07;;
579;SDS011;276;48.392;9.950;2023-05-07T02:34:39;3.40;;;3.20;;
579;SDS011;276;48.392;9.950;2023-05-07T02:37:07;3.70;;;3.40;;
579;SDS011;276;48.392;9.950;2023-05-07T02:39:35;3.00;;;2.80;;
579;SDS011;276;48.392;9.950;2023-05-07T02:42:02;2.90;;;2.70;;
579;SDS011;276;48.392;9.950;2023-05-07T02:44:27;3.77;;;3.53;;
579;SDS011;276;48.392;9.950;2023-05-07T02:46:56;3.50;;;3.30;;
579;SDS011;276;48.392;9.950;2023-05-07T02:49:21;3.17;;;2.90;;
579;SDS011;276;48.392;9.950;2023-05-07T02:51:47;3.47;;;3.17;;
579;SDS011;276;48.392;9.950;2023-05-07T02:54:13;3.30;;;3.10;;
579;SDS011;276;48.392;9.950;2023-05-07T02:56:40;3.80;;;3.50;;
579;SDS011;276;48.392;9.950;2023-05-07T02:59:06;3.50;;;2.67;;
579;SDS011;276;48.392;9.950;2023-05-07T03:01:34;3.87;;;3.43;;
579;SDS011;276;48.392;9.950;2023-05-07T03:03:59;3.90;;;3.60;;
579;SDS011;276;48.392;9.950;2023-05-07T03:06:25;5.20;;;4.73;;
579;SDS011;276;48.392;9.950;2023-05-07T03:08:51;4.23;;;3.90;;
579;SDS011;276;48.392;9.950;2023-05-07T03:11:16;3.93;;;3.63;;
579;SDS011;276;48.392;9.950;2023-05-07T03:13:44;3.47;;;3.10;;
579;SDS011;276;48.392;9.950;2023-05-07T03:16:10;3.73;;;3.30;;
579;SDS011;276;48.392;9.950;2023-05-07T03:18:38;4.00;;;3.67;;
579;SDS011;276;48.392;9.950;2023-05-07T03:21:04;2.70;;;2.50;;
579;SDS011;276;48.392;9.950;2023-05-07T03:23:29;3.83;;;3.20;;
579;SDS011;276;48.392;9.950;2023-05-07T03:25:55;3.90;;;3.00;;
579;SDS011;276;48.392;9.950;2023-05-07T03:28:21;3.90;;;3.43;;
579;SDS011;276;48.392;9.950;2023-05-07T03:30:49;4.80;;;4.40;;
579;SDS011;276;48.392;9.950;2023-05-07T03:33:14;5.43;;;3.70;;
579;SDS011;276;48.392;9.950;2023-05-07T03:35:42;3.90;;;3.60;;
579;SDS011;276;48.392;9.950;2023-05-07T03:38:08;4.53;;;4.13;;
579;SDS011;276;48.392;9.950;2023-05-07T03:40:34;4.43;;;3.30;;
579;SDS011;276;48.392;9.950;2023-05-07T03:42:59;3.67;;;3.37;;
579;SDS011;276;48.392;9.950;2023-05-07T03:45:30;3.80;;;3.33;;
579;SDS011;276;48.392;9.950;2023-05-07T03:47:58;3.73;;;3.40;;
579;SDS011;276;48.392;9.950;2023-05-07T03:50:25;3.53;;;3.00;;
579;SDS011;276;48.392;9.950;2023-05-07T03:52:51;3.80;;;3.50;;
579;SDS011;276;48.392;9.950;2023-05-07T03:55:17;3.43;;;3.10;;
579;SDS011;276;48.392;9.950;2023-05-07T03:57:42;5.40;;;3.37;;
579;SDS011;276;48.392;9.950;2023-05-07T04:00:08;4.37;;;4.07;;
579;SDS011;276;48.392;9.950;2023-05-07T04:02:36;4.83;;;3.80;;
579;SDS011;276;48.392;9.950;2023-05-07T04:05:02;4.00;;;3.70;;
579;SDS011;276;48.392;9.950;2023-05-07T04:07:30;3.97;;;3.67;;
579;SDS011;276;48.392;9.950;2023-05-07T04:09:58;4.23;;;3.93;;
579;SDS011;276;48.392;9.950;2023-05-07T04:12:23;4.50;;;4.10;;
579;SDS011;276;48.392;9.950;2023-05-07T04:14:54;4.20;;;3.80;;
579;SDS011;276;48.392;9.950;2023-05-07T04:17:21;3.50;;;3.20;;
579;SDS011;276;48.392;9.950;2023-05-07T04:19:47;6.17;;;4.67;;
579;SDS011;276;48.392;9.950;2023-05-07T04:22:13;3.90;;;3.60;;
579;SDS011;276;48.392;9.950;2023-05-07T04:24:38;6.47;;;4.53;;
579;SDS011;276;48.392;9.950;2023-05-07T04:27:04;6.53;;;3.87;;
579;SDS011;276;48.392;9.950;2023-05-07T04:29:31;3.20;;;3.00;;
579;SDS011;276;48.392;9.950;2023-05-07T04:31:56;4.40;;;4.00;;
579;SDS011;276;48.392;9.950;2023-05-07T04:34:23;4.13;;;3.73;;
579;SDS011;276;48.392;9.950;2023-05-07T04:36:49;3.50;;;3.20;;
579;SDS011;276;48.392;9.950;2023-05-07T04:39:15;3.60;;;3.40;;
579;SDS011;276;48.392;9.950;2023-05-07T04:41:41;3.70;;;3.40;;
579;SDS011;276;48.392;9.950;2023-05-07T04:44:06;4.50;;;4.20;;
579;SDS011;276;48.392;9.950;2023-05-07T04:46:32;4.10;;;3.80;;
579;SDS011;276;48.392;9.950;2023-05-07T04:49:00;4.20;;;3.90;;
579;SDS011;276;48.392;9.950;2023-05-07T04:51:25;3.93;;;3.73;;
579;SDS011;276;48.392;9.950;2023-05-07T04:53:51;3.73;;;3.40;;
579;SDS011;276;48.392;9.950;2023-05-07T04:56:19;3.93;;;3.63;;
579;SDS011;276;48.392;9.950;2023-05-07T04:58:45;3.80;;;3.47;;
579;SDS011;276;48.392;9.950;2023-05-07T05:01:11;3.50;;;3.27;;
579;SDS011;276;48.392;9.950;2023-05-07T05:03:39;4.53;;;4.13;;
579;SDS011;276;48.392;9.950;2023-05-07T05:06:07;3.90;;;3.60;;
579;SDS011;276;48.392;9.950;2023-05-07T05:08:32;4.70;;;4.40;;
579;SDS011;276;48.392;9.950;2023-05-07T05:11:01;3.20;;;3.00;;
579;SDS011;276;48.392;9.950;2023-05-07T05:13:27;4.53;;;4.23;;
579;SDS011;276;48.392;9.950;2023-05-07T05:15:53;4.40;;;4.00;;
579;SDS011;276;48.392;9.950;2023-05-07T05:18:23;4.00;;;3.70;;
579;SDS011;276;48.392;9.950;2023-05-07T05:20:51;3.97;;;3.67;;
579;SDS011;276;48.392;9.950;2023-05-07T05:23:19;4.13;;;3.83;;
579;SDS011;276;48.392;9.950;2023-05-07T05:25:45;4.20;;;4.00;;
579;SDS011;276;48.392;9.950;2023-05-07T05:28:10;6.30;;;4.47;;
579;SDS011;276;48.392;9.950;2023-05-07T05:30:38;4.80;;;4.00;;
579;SDS011;276;48.392;9.950;2023-05-07T05:33:04;4.37;;;4.07;;
579;SDS011;276;48.392;9.950;2023-05-07T05:35:30;4.23;;;3.90;;
579;SDS011;276;48.392;9.950;2023-05-07T05:37:56;4.53;;;4.17;;
579;SDS011;276;48.392;9.950;2023-05-07T05:40:22;4.30;;;4.00;;
579;SDS011;276;48.392;9.950;2023-05-07T05:42:48;4.77;;;4.37;;
579;SDS011;276;48.392;9.950;2023-05-07T05:45:13;4.57;;;4.17;;
579;SDS011;276;48.392;9.950;2023-05-07T05:47:39;3.67;;;3.27;;
579;SDS011;276;48.392;9.950;2023-05-07T05:50:06;4.37;;;4.03;;
579;SDS011;276;48.392;9.950;2023-05-07T05:52:32;3.83;;;3.50;;
579;SDS011;276;48.392;9.950;2023-05-07T05:54:57;4.33;;;4.03;;
579;SDS011;276;48.392;9.950;2023-05-07T05:57:25;4.67;;;4.10;;
579;SDS011;276;48.392;9.950;2023-05-07T05:59:53;5.30;;;4.90;;
579;SDS011;276;48.392;9.950;2023-05-07T06:02:19;3.63;;;3.33;;
579;SDS011;276;48.392;9.950;2023-05-07T06:04:50;4.30;;;4.00;;
579;SDS011;276;48.392;9.950;2023-05-07T06:07:15;4.23;;;3.93;;
579;SDS011;276;48.392;9.950;2023-05-07T06:09:41;4.00;;;3.70;;
579;SDS011;276;48.392;9.950;2023-05-07T06:12:07;8.73;;;6.27;;
579;SDS011;276;48.392;9.950;2023-05-07T06:14:32;5.00;;;4.60;;
579;SDS011;276;48.392;9.950;2023-05-07T06:16:58;6.10;;;5.70;;
579;SDS011;276;48.392;9.950;2023-05-07T06:19:23;6.93;;;6.23;;
579;SDS011;276;48.392;9.950;2023-05-07T06:21:51;7.27;;;6.20;;
579;SDS011;276;48.392;9.950;2023-05-07T06:24:17;5.50;;;5.10;;
579;SDS011;276;48.392;9.950;2023-05-07T06:26:45;5.07;;;4.67;;
579;SDS011;276;48.392;9.950;2023-05-07T06:29:15;6.33;;;5.83;;
579;SDS011;276;48.392;9.950;2023-05-07T06:31:43;6.97;;;6.40;;
579;SDS011;276;48.392;9.950;2023-05-07T06:34:11;6.20;;;5.20;;
579;SDS011;276;48.392;9.950;2023-05-07T06:36:39;5.13;;;4.60;;
579;SDS011;276;48.392;9.950;2023-05-07T06:39:07;5.77;;;5.37;;
579;SDS011;276;48.392;9.950;2023-05-07T06:41:33;6.27;;;5.77;;
579;SDS011;276;48.392;9.950;2023-05-07T06:44:00;5.73;;;5.30;;
579;SDS011;276;48.392;9.950;2023-05-07T06:46:27;6.17;;;5.63;;
579;SDS011;276;48.392;9.950;2023-05-07T06:48:52;5.07;;;4.67;;
579;SDS011;276;48.392;9.950;2023-05-07T06:51:18;5.70;;;5.30;;
579;SDS011;276;48.392;9.950;2023-05-07T06:53:46;6.23;;;5.73;;
579;SDS011;276;48.392;9.950;2023-05-07T06:56:11;6.40;;;4.33;;
579;SDS011;276;48.392;9.950;2023-05-07T06:58:37;5.80;;;5.40;;
579;SDS011;276;48.392;9.950;2023-05-07T07:01:02;4.50;;;4.10;;
579;SDS011;276;48.392;9.950;2023-05-07T07:03:31;4.40;;;4.10;;
579;SDS011;276;48.392;9.950;2023-05-07T07:05:56;7.97;;;7.37;;
579;SDS011;276;48.392;9.950;2023-05-07T07:08:24;13.53;;;12.33;;
579;SDS011;276;48.392;9.950;2023-05-07T07:10:52;11.80;;;10.80;;
579;SDS011;276;48.392;9.950;2023-05-07T07:13:20;11.60;;;10.67;;
579;SDS011;276;48.392;9.950;2023-05-07T07:15:45;11.37;;;10.33;;
579;SDS011;276;48.392;9.950;2023-05-07T07:18:13;8.50;;;7.80;;
579;SDS011;276;48.392;9.950;2023-05-07T07:20:38;8.30;;;7.50;;
579;SDS011;276;48.392;9.950;2023-05-07T07:23:04;6.83;;;6.27;;
579;SDS011;276;48.392;9.950;2023-05-07T07:25:30;6.43;;;5.97;;
579;SDS011;276;48.392;9.950;2023-05-07T07:27:56;7.37;;;6.63;;
579;SDS011;276;48.392;9.950;2023-05-07T07:30:21;6.87;;;6.37;;
579;SDS011;276;48.392;9.950;2023-05-07T07:32:49;6.17;;;5.67;;
579;SDS011;276;48.392;9.950;2023-05-07T07:35:17;5.13;;;4.80;;
579;SDS011;276;48.392;9.950;2023-05-07T07:37:43;5.10;;;4.70;;
579;SDS011;276;48.392;9.950;2023-05-07T07:40:11;5.50;;;5.10;;
579;SDS011;276;48.392;9.950;2023-05-07T07:42:40;5.80;;;5.30;;
579;SDS011;276;48.392;9.950;2023-05-07T07:45:06;6.60;;;5.97;;
579;SDS011;276;48.392;9.950;2023-05-07T07:47:37;5.00;;;4.60;;
579;SDS011;276;48.392;9.950;2023-05-07T07:50:03;6.20;;;5.30;;
579;SDS011;276;48.392;9.950;2023-05-07T07:52:29;5.37;;;4.97;;
579;SDS011;276;48.392;9.950;2023-05-07T07:54:55;5.90;;;5.50;;
579;SDS011;276;48.392;9.950;2023-05-07T07:57:20;5.10;;;4.60;;
579;SDS011;276;48.392;9.950;2023-05-07T07:59:46;6.50;;;5.00;;
579;SDS011;276;48.392;9.950;2023-05-07T08:02:11;4.17;;;3.87;;
579;SDS011;276;48.392;9.950;2023-05-07T08:04:37;5.20;;;4.90;;
579;SDS011;276;48.392;9.950;2023-05-07T08:07:03;6.80;;;6.20;;
579;SDS011;276;48.392;9.950;2023-05-07T08:09:29;6.47;;;5.97;;
579;SDS011;276;48.392;9.950;2023-05-07T08:11:54;4.80;;;4.40;;
579;SDS011;276;48.392;9.950;2023-05-07T08:14:20;5.20;;;4.80;;
579;SDS011;276;48.392;9.950;2023-05-07T08:16:45;5.27;;;4.80;;
579;SDS011;276;48.392;9.950;2023-05-07T08:19:11;6.27;;;5.73;;
579;SDS011;276;48.392;9.950;2023-05-07T08:21:39;8.87;;;8.23;;
579;SDS011;276;48.392;9.950;2023-05-07T08:24:05;8.90;;;8.20;;
579;SDS011;276;48.392;9.950;2023-05-07T08:26:30;6.87;;;6.27;;
579;SDS011;276;48.392;9.950;2023-05-07T08:28:56;5.60;;;5.10;;
579;SDS011;276;48.392;9.950;2023-05-07T08:31:26;5.20;;;4.70;;
579;SDS011;276;48.392;9.950;2023-05-07T08:33:52;6.50;;;6.00;;
579;SDS011;276;48.392;9.950;2023-05-07T08:36:20;6.37;;;5.77;;
579;SDS011;276;48.392;9.950;2023-05-07T08:38:45;6.13;;;5.73;;
579;SDS011;276;48.392;9.950;2023-05-07T08:41:11;7.50;;;6.90;;
579;SDS011;276;48.392;9.950;2023-05-07T08:43:37;7.03;;;6.53;;
579;SDS011;276;48.392;9.950;2023-05-07T08:46:05;7.37;;;6.67;;
579;SDS011;276;48.392;9.950;2023-05-07T08:48:31;6.40;;;5.77;;
579;SDS011;276;48.392;9.950;2023-05-07T08:51:00;7.70;;;7.10;;
579;SDS011;276;48.392;9.950;2023-05-07T08:53:26;5.93;;;5.47;;
579;SDS011;276;48.392;9.950;2023-05-07T08:55:54;6.60;;;6.10;;
579;SDS011;276;48.392;9.950;2023-05-07T08:58:20;5.53;;;5.10;;
579;SDS011;276;48.392;9.950;2023-05-07T09:00:46;7.03;;;6.53;;
579;SDS011;276;48.392;9.950;2023-05-07T09:03:12;6.10;;;5.60;;
579;SDS011;276;48.392;9.950;2023-05-07T09:05:41;6.97;;;6.37;;
579;SDS011;276;48.392;9.950;2023-05-07T09:08:14;6.83;;;6.33;;
579;SDS011;276;48.392;9.950;2023-05-07T09:10:40;5.03;;;4.63;;
579;SDS011;276;48.392;9.950;2023-05-07T09:13:08;4.70;;;4.20;;
579;SDS011;276;48.392;9.950;2023-05-07T09:15:38;7.03;;;6.33;;
579;SDS011;276;48.392;9.950;2023-05-07T09:18:08;6.60;;;6.10;;
579;SDS011;276;48.392;9.950;2023-05-07T09:20:36;6.57;;;6.00;;
579;SDS011;276;48.392;9.950;2023-05-07T09:23:02;5.57;;;5.27;;
579;SDS011;276;48.392;9.950;2023-05-07T09:25:29;8.70;;;6.00;;
579;SDS011;276;48.392;9.950;2023-05-07T09:28:01;6.73;;;6.23;;
579;SDS011;276;48.392;9.950;2023-05-07T09:30:31;5.60;;;5.20;;
579;SDS011;276;48.392;9.950;2023-05-07T09:32:57;6.13;;;5.73;;
579;SDS011;276;48.392;9.950;2023-05-07T09:35:26;7.37;;;5.53;;
579;SDS011;276;48.392;9.950;2023-05-07T09:37:53;4.13;;;3.80;;
579;SDS011;276;48.392;9.950;2023-05-07T09:40:23;5.07;;;4.60;;
579;SDS011;276;48.392;9.950;2023-05-07T09:42:51;5.47;;;4.93;;
579;SDS011;276;48.392;9.950;2023-05-07T09:45:27;4.80;;;4.33;;
579;SDS011;276;48.392;9.950;2023-05-07T09:47:59;6.10;;;5.67;;
579;SDS011;276;48.392;9.950;2023-05-07T09:50:30;6.00;;;5.50;;
579;SDS011;276;48.392;9.950;2023-05-07T09:53:03;5.90;;;5.30;;
579;SDS011;276;48.392;9.950;2023-05-07T09:55:29;5.77;;;5.37;;
579;SDS011;276;48.392;9.950;2023-05-07T09:57:55;4.40;;;4.10;;
579;SDS011;276;48.392;9.950;2023-05-07T10:00:26;4.63;;;4.33;;
579;SDS011;276;48.392;9.950;2023-05-07T10:02:54;5.50;;;4.27;;
579;SDS011;276;48.392;9.950;2023-05-07T10:05:22;3.97;;;3.63;;
579;SDS011;276;48.392;9.950;2023-05-07T10:07:49;4.10;;;3.77;;
579;SDS011;276;48.392;9.950;2023-05-07T10:10:17;5.07;;;4.47;;
579;SDS011;276;48.392;9.950;2023-05-07T10:12:43;5.87;;;4.93;;
579;SDS011;276;48.392;9.950;2023-05-07T10:15:12;5.43;;;4.93;;
579;SDS011;276;48.392;9.950;2023-05-07T10:17:39;5.07;;;4.57;;
579;SDS011;276;48.392;9.950;2023-05-07T10:20:05;3.63;;;3.43;;
579;SDS011;276;48.392;9.950;2023-05-07T10:22:36;2.90;;;2.70;;
579;SDS011;276;48.392;9.950;2023-05-07T10:25:06;5.53;;;2.87;;
579;SDS011;276;48.392;9.950;2023-05-07T10:27:36;4.23;;;3.73;;
579;SDS011;276;48.392;9.950;2023-05-07T10:30:12;4.50;;;3.87;;
579;SDS011;276;48.392;9.950;2023-05-07T10:32:47;3.63;;;3.37;;
579;SDS011;276;48.392;9.950;2023-05-07T10:35:19;2.90;;;2.80;;
579;SDS011;276;48.392;9.950;2023-05-07T10:37:47;2.73;;;2.53;;
579;SDS011;276;48.392;9.950;2023-05-07T10:40:16;3.40;;;3.10;;
579;SDS011;276;48.392;9.950;2023-05-07T10:42:57;4.20;;;3.80;;
579;SDS011;276;48.392;9.950;2023-05-07T10:45:24;4.40;;;3.37;;
579;SDS011;276;48.392;9.950;2023-05-07T10:50:38;4.17;;;3.87;;
579;SDS011;276;48.392;9.950;2023-05-07T10:55:46;5.93;;;3.67;;
579;SDS011;276;48.392;9.950;2023-05-07T10:58:29;3.70;;;3.50;;
579;SDS011;276;48.392;9.950;2023-05-07T11:00:59;4.30;;;3.80;;
579;SDS011;276;48.392;9.950;2023-05-07T11:03:25;3.10;;;2.80;;
579;SDS011;276;48.392;9.950;2023-05-07T11:14:09;3.37;;;3.10;;
579;SDS011;276;48.392;9.950;2023-05-07T11:16:35;3.57;;;3.27;;
579;SDS011;276;48.392;9.950;2023-05-07T11:19:04;4.47;;;3.20;;
579;SDS011;276;48.392;9.950;2023-05-07T11:21:39;4.50;;;3.43;;
579;SDS011;276;48.392;9.950;2023-05-07T11:24:10;4.97;;;4.57;;
579;SDS011;276;48.392;9.950;2023-05-07T11:26:46;4.80;;;4.40;;
579;SDS011;276;48.392;9.950;2023-05-07T11:29:16;3.90;;;3.60;;
579;SDS011;276;48.392;9.950;2023-05-07T11:31:51;6.00;;;3.77;;
579;SDS011;276;48.392;9.950;2023-05-07T11:34:21;5.93;;;5.47;;
579;SDS011;276;48.392;9.950;2023-05-07T11:36:53;4.60;;;4.30;;
579;SDS011;276;48.392;9.950;2023-05-07T11:39:26;4.73;;;3.30;;
579;SDS011;276;48.392;9.950;2023-05-07T11:41:56;3.53;;;3.27;;
579;SDS011;276;48.392;9.950;2023-05-07T11:44:22;4.33;;;4.03;;
579;SDS011;276;48.392;9.950;2023-05-07T11:46:49;4.20;;;3.80;;
579;SDS011;276;48.392;9.950;2023-05-07T11:49:15;3.63;;;3.33;;
579;SDS011;276;48.392;9.950;2023-05-07T11:51:41;3.70;;;3.47;;
579;SDS011;276;48.392;9.950;2023-05-07T11:54:11;4.37;;;4.07;;
579;SDS011;276;48.392;9.950;2023-05-07T11:56:40;4.53;;;4.07;;
579;SDS011;276;48.392;9.950;2023-05-07T11:59:09;4.43;;;4.13;;
579;SDS011;276;48.392;9.950;2023-05-07T12:01:35;4.67;;;4.37;;
579;SDS011;276;48.392;9.950;2023-05-07T12:04:02;3.20;;;3.00;;
579;SDS011;276;48.392;9.950;2023-05-07T12:06:35;6.50;;;5.47;;
579;SDS011;276;48.392;9.950;2023-05-07T12:09:02;4.00;;;3.70;;
579;SDS011;276;48.392;9.950;2023-05-07T12:11:29;4.10;;;3.80;;
579;SDS011;276;48.392;9.950;2023-05-07T12:13:57;3.60;;;3.00;;
579;SDS011;276;48.392;9.950;2023-05-07T12:16:22;3.40;;;3.20;;
579;SDS011;276;48.392;9.950;2023-05-07T12:18:48;4.20;;;3.90;;
579;SDS011;276;48.392;9.950;2023-05-07T12:21:15;3.70;;;3.40;;
579;SDS011;276;48.392;9.950;2023-05-07T12:23:43;3.40;;;3.20;;
579;SDS011;276;48.392;9.950;2023-05-07T12:26:10;5.47;;;3.53;;
579;SDS011;276;48.392;9.950;2023-05-07T12:28:36;4.20;;;3.90;;
579;SDS011;276;48.392;9.950;2023-05-07T12:31:03;3.70;;;3.30;;
579;SDS011;276;48.392;9.950;2023-05-07T12:33:30;3.40;;;3.10;;
579;SDS011;276;48.392;9.950;2023-05-07T12:35:58;4.03;;;3.63;;
579;SDS011;276;48.392;9.950;2023-05-07T12:38:27;3.47;;;3.27;;
579;SDS011;276;48.392;9.950;2023-05-07T12:41:02;3.83;;;3.63;;
579;SDS011;276;48.392;9.950;2023-05-07T12:43:28;3.60;;;3.40;;
579;SDS011;276;48.392;9.950;2023-05-07T12:45:55;4.17;;;3.60;;
579;SDS011;276;48.392;9.950;2023-05-07T12:48:25;3.30;;;3.10;;
579;SDS011;276;48.392;9.950;2023-05-07T12:50:55;3.37;;;2.90;;
579;SDS011;276;48.392;9.950;2023-05-07T12:53:22;2.97;;;2.77;;
579;SDS011;276;48.392;9.950;2023-05-07T12:55:53;5.63;;;2.57;;
579;SDS011;276;48.392;9.950;2023-05-07T13:00:58;3.40;;;3.10;;
579;SDS011;276;48.392;9.950;2023-05-07T13:05:51;2.50;;;2.30;;
579;SDS011;276;48.392;9.950;2023-05-07T13:08:24;2.93;;;2.73;;
579;SDS011;276;48.392;9.950;2023-05-07T13:10:57;2.60;;;2.40;;
579;SDS011;276;48.392;9.950;2023-05-07T13:13:28;3.00;;;2.63;;
579;SDS011;276;48.392;9.950;2023-05-07T13:16:00;2.73;;;2.53;;
579;SDS011;276;48.392;9.950;2023-05-07T13:18:28;3.57;;;3.27;;
579;SDS011;276;48.392;9.950;2023-05-07T13:20:55;2.67;;;2.47;;
579;SDS011;276;48.392;9.950;2023-05-07T13:23:21;2.57;;;2.37;;
579;SDS011;276;48.392;9.950;2023-05-07T13:25:47;3.03;;;2.83;;
579;SDS011;276;48.392;9.950;2023-05-07T13:28:13;4.80;;;3.33;;
579;SDS011;276;48.392;9.950;2023-05-07T13:30:39;2.53;;;2.33;;
579;SDS011;276;48.392;9.950;2023-05-07T13:33:07;2.87;;;2.67;;
579;SDS011;276;48.392;9.950;2023-05-07T13:35:33;3.20;;;2.90;;
579;SDS011;276;48.392;9.950;2023-05-07T13:38:02;3.50;;;3.20;;
579;SDS011;276;48.392;9.950;2023-05-07T13:40:27;2.80;;;2.60;;
579;SDS011;276;48.392;9.950;2023-05-07T13:42:57;3.17;;;2.97;;
579;SDS011;276;48.392;9.950;2023-05-07T13:45:25;3.43;;;3.13;;
579;SDS011;276;48.392;9.950;2023-05-07T13:47:51;3.23;;;2.80;;
579;SDS011;276;48.392;9.950;2023-05-07T13:50:19;3.03;;;2.70;;
579;SDS011;276;48.392;9.950;2023-05-07T13:52:45;3.07;;;2.87;;
579;SDS011;276;48.392;9.950;2023-05-07T13:55:17;3.40;;;3.10;;
579;SDS011;276;48.392;9.950;2023-05-07T13:57:43;2.80;;;2.47;;
579;SDS011;276;48.392;9.950;2023-05-07T14:00:10;2.37;;;2.17;;
579;SDS011;276;48.392;9.950;2023-05-07T14:02:38;2.00;;;1.90;;
579;SDS011;276;48.392;9.950;2023-05-07T14:05:05;2.77;;;2.57;;
579;SDS011;276;48.392;9.950;2023-05-07T14:07:31;2.40;;;2.20;;
579;SDS011;276;48.392;9.950;2023-05-07T14:09:59;2.73;;;2.53;;
579;SDS011;276;48.392;9.950;2023-05-07T14:12:25;2.40;;;2.30;;
579;SDS011;276;48.392;9.950;2023-05-07T14:14:55;2.33;;;2.13;;
579;SDS011;276;48.392;9.950;2023-05-07T14:17:21;2.93;;;2.63;;
579;SDS011;276;48.392;9.950;2023-05-07T14:19:48;1.97;;;1.83;;
579;SDS011;276;48.392;9.950;2023-05-07T14:22:13;2.67;;;2.47;;
579;SDS011;276;48.392;9.950;2023-05-07T14:24:40;3.53;;;3.07;;
579;SDS011;276;48.392;9.950;2023-05-07T14:27:06;2.93;;;2.73;;
579;SDS011;276;48.392;9.950;2023-05-07T14:29:31;2.27;;;2.07;;
579;SDS011;276;48.392;9.950;2023-05-07T14:31:57;2.13;;;2.03;;
579;SDS011;276;48.392;9.950;2023-05-07T14:34:25;2.10;;;2.00;;
579;SDS011;276;48.392;9.950;2023-05-07T14:36:53;2.73;;;2.20;;
579;SDS011;276;48.392;9.950;2023-05-07T14:39:19;2.87;;;2.60;;
579;SDS011;276;48.392;9.950;2023-05-07T14:41:44;3.30;;;2.40;;
579;SDS011;276;48.392;9.950;2023-05-07T14:44:10;2.37;;;2.20;;
579;SDS011;276;48.392;9.950;2023-05-07T14:46:40;2.60;;;2.40;;
579;SDS011;276;48.392;9.950;2023-05-07T14:49:05;2.60;;;2.20;;
579;SDS011;276;48.392;9.950;2023-05-07T14:51:31;2.23;;;2.13;;
579;SDS011;276;48.392;9.950;2023-05-07T14:54:00;2.67;;;2.47;;
579;SDS011;276;48.392;9.950;2023-05-07T14:56:26;2.67;;;2.47;;
579;SDS011;276;48.392;9.950;2023-05-07T14:58:54;3.87;;;2.33;;
579;SDS011;276;48.392;9.950;2023-05-07T15:01:22;3.13;;;2.53;;
579;SDS011;276;48.392;9.950;2023-05-07T15:03:47;3.03;;;2.70;;
579;SDS011;276;48.392;9.950;2023-05-07T15:06:15;1.90;;;1.80;;
579;SDS011;276;48.392;9.950;2023-05-07T15:08:41;2.47;;;2.27;;
579;SDS011;276;48.392;9.950;2023-05-07T15:11:06;2.10;;;1.80;;
579;SDS011;276;48.392;9.950;2023-05-07T15:13:34;2.10;;;2.00;;
579;SDS011;276;48.392;9.950;2023-05-07T15:16:00;1.83;;;1.73;;
579;SDS011;276;48.392;9.950;2023-05-07T15:18:25;1.90;;;1.80;;
579;SDS011;276;48.392;9.950;2023-05-07T15:20:51;2.57;;;2.37;;
579;SDS011;276;48.392;9.950;2023-05-07T15:23:17;2.47;;;2.37;;
579;SDS011;276;48.392;9.950;2023-05-07T15:25:45;2.27;;;2.07;;
579;SDS011;276;48.392;9.950;2023-05-07T15:28:10;2.47;;;2.37;;
579;SDS011;276;48.392;9.950;2023-05-07T15:30:36;2.67;;;2.47;;
579;SDS011;276;48.392;9.950;2023-05-07T15:33:02;2.20;;;2.10;;
579;SDS011;276;48.392;9.950;2023-05-07T15:35:30;3.37;;;3.10;;
579;SDS011;276;48.392;9.950;2023-05-07T15:37:56;2.60;;;2.40;;
579;SDS011;276;48.392;9.950;2023-05-07T15:40:24;2.43;;;2.23;;
579;SDS011;276;48.392;9.950;2023-05-07T15:42:50;3.00;;;2.70;;
579;SDS011;276;48.392;9.950;2023-05-07T15:45:23;3.30;;;2.30;;
579;SDS011;276;48.392;9.950;2023-05-07T15:47:49;2.23;;;2.10;;
579;SDS011;276;48.392;9.950;2023-05-07T15:50:17;3.73;;;3.00;;
579;SDS011;276;48.392;9.950;2023-05-07T15:52:42;5.60;;;2.07;;
579;SDS011;276;48.392;9.950;2023-05-07T15:55:09;2.60;;;2.40;;
579;SDS011;276;48.392;9.950;2023-05-07T15:57:38;2.47;;;2.37;;
579;SDS011;276;48.392;9.950;2023-05-07T16:00:04;9.03;;;6.83;;
579;SDS011;276;48.392;9.950;2023-05-07T16:02:33;9.80;;;8.90;;